sensor_id;sensor_type;location;lat;lon;timestamp;pressure;altitude;pressure_sealevel;temperature;humidity
18231;BME280;9240;49.966;21.994;2024-02-21T00:01:39;99456.31;;;5.56;90.50
18231;BME280;9240;49.966;21.994;2024-02-21T00:04:05;99446.84;;;5.56;90.46
18231;BME280;9240;49.966;21.994;2024-02-21T00:06:30;99452.09;;;5.55;90.39
18231;BME280;9240;49.966;21.994;2024-02-21T00:08:57;99450.31;;;5.55;90.65
18231;BME280;9240;49.966;21.994;2024-02-21T00:11:23;99446.16;;;5.53;90.62
18231;BME280;9240;49.966;21.994;2024-02-21T00:13:48;99451.31;;;5.53;90.48
18231;BME280;9240;49.966;21.994;2024-02-21T00:16:14;99444.47;;;5.52;90.49
18231;BME280;9240;49.966;21.994;2024-02-21T00:18:39;99447.97;;;5.51;90.75
18231;BME280;9240;49.966;21.994;2024-02-21T00:21:05;99447.22;;;5.49;90.77
18231;BME280;9240;49.966;21.994;2024-02-21T00:23:31;99445.53;;;5.47;90.50
18231;BME280;9240;49.966;21.994;2024-02-21T00:25:57;99440.47;;;5.46;90.49
18231;BME280;9240;49.966;21.994;2024-02-21T00:28:23;99438.84;;;5.43;90.53
18231;BME280;9240;49.966;21.994;2024-02-21T00:30:49;99440.66;;;5.41;90.49
18231;BME280;9240;49.966;21.994;2024-02-21T00:33:14;99439.84;;;5.41;90.44
18231;BME280;9240;49.966;21.994;2024-02-21T00:35:40;99442.47;;;5.39;90.56
18231;BME280;9240;49.966;21.994;2024-02-21T00:38:05;99439.88;;;5.39;90.49
18231;BME280;9240;49.966;21.994;2024-02-21T00:40:31;99436.50;;;5.39;90.38
18231;BME280;9240;49.966;21.994;2024-02-21T00:42:58;99440.78;;;5.38;90.43
18231;BME280;9240;49.966;21.994;2024-02-21T00:45:23;99437.31;;;5.39;90.25
18231;BME280;9240;49.966;21.994;2024-02-21T00:47:49;99438.22;;;5.38;90.30
18231;BME280;9240;49.966;21.994;2024-02-21T00:50:15;99437.41;;;5.38;90.35
18231;BME280;9240;49.966;21.994;2024-02-21T00:52:40;99433.22;;;5.35;90.53
18231;BME280;9240;49.966;21.994;2024-02-21T00:55:07;99436.78;;;5.32;90.45
18231;BME280;9240;49.966;21.994;2024-02-21T00:57:32;99435.94;;;5.32;90.50
18231;BME280;9240;49.966;21.994;2024-02-21T00:59:59;99437.00;;;5.28;90.62
18231;BME280;9240;49.966;21.994;2024-02-21T01:02:25;99442.09;;;5.29;90.78
18231;BME280;9240;49.966;21.994;2024-02-21T01:04:51;99445.50;;;5.30;90.49
18231;BME280;9240;49.966;21.994;2024-02-21T01:07:17;99447.19;;;5.31;90.66
18231;BME280;9240;49.966;21.994;2024-02-21T01:09:42;99445.38;;;5.33;90.62
18231;BME280;9240;49.966;21.994;2024-02-21T01:12:08;99443.56;;;5.35;90.71
18231;BME280;9240;49.966;21.994;2024-02-21T01:14:33;99447.81;;;5.36;90.79
18231;BME280;9240;49.966;21.994;2024-02-21T01:17:00;99444.38;;;5.36;90.57
18231;BME280;9240;49.966;21.994;2024-02-21T01:19:26;99446.06;;;5.37;90.66
18231;BME280;9240;49.966;21.994;2024-02-21T01:21:51;99439.97;;;5.38;90.83
18231;BME280;9240;49.966;21.994;2024-02-21T01:24:17;99437.31;;;5.39;90.75
18231;BME280;9240;49.966;21.994;2024-02-21T01:26:42;99434.72;;;5.39;90.93
18231;BME280;9240;49.966;21.994;2024-02-21T01:29:08;99433.81;;;5.40;91.20
18231;BME280;9240;49.966;21.994;2024-02-21T01:31:33;99438.97;;;5.40;91.34
18231;BME280;9240;49.966;21.994;2024-02-21T01:34:00;99433.81;;;5.40;91.18
18231;BME280;9240;49.966;21.994;2024-02-21T01:36:26;99426.97;;;5.39;91.01
18231;BME280;9240;49.966;21.994;2024-02-21T01:38:51;99430.47;;;5.38;91.53
18231;BME280;9240;49.966;21.994;2024-02-21T01:41:17;99428.81;;;5.37;91.29
18231;BME280;9240;49.966;21.994;2024-02-21T01:43:43;99430.56;;;5.37;91.32
18231;BME280;9240;49.966;21.994;2024-02-21T01:46:08;99434.97;;;5.35;91.57
18231;BME280;9240;49.966;21.994;2024-02-21T01:48:34;99429.88;;;5.33;91.61
18231;BME280;9240;49.966;21.994;2024-02-21T01:51:03;99436.78;;;5.32;92.05
18231;BME280;9240;49.966;21.994;2024-02-21T01:53:30;99438.53;;;5.32;91.91
18231;BME280;9240;49.966;21.994;2024-02-21T01:55:56;99435.19;;;5.30;92.04
18231;BME280;9240;49.966;21.994;2024-02-21T01:58:22;99431.84;;;5.28;92.03
18231;BME280;9240;49.966;21.994;2024-02-21T02:00:49;99431.97;;;5.25;92.25
18231;BME280;9240;49.966;21.994;2024-02-21T02:03:15;99430.25;;;5.25;92.17
18231;BME280;9240;49.966;21.994;2024-02-21T02:05:41;99436.31;;;5.24;92.17
18231;BME280;9240;49.966;21.994;2024-02-21T02:08:08;99438.03;;;5.24;92.17
18231;BME280;9240;49.966;21.994;2024-02-21T02:10:33;99438.03;;;5.24;92.15
18231;BME280;9240;49.966;21.994;2024-02-21T02:12:59;99438.22;;;5.21;92.28
18231;BME280;9240;49.966;21.994;2024-02-21T02:15:25;99426.22;;;5.20;92.44
18231;BME280;9240;49.966;21.994;2024-02-21T02:17:50;99434.78;;;5.20;92.59
18231;BME280;9240;49.966;21.994;2024-02-21T02:20:16;99438.28;;;5.19;92.28
18231;BME280;9240;49.966;21.994;2024-02-21T02:22:43;99441.72;;;5.20;92.38
18231;BME280;9240;49.966;21.994;2024-02-21T02:25:11;99435.69;;;5.19;92.14
18231;BME280;9240;49.966;21.994;2024-02-21T02:27:43;99442.66;;;5.17;92.26
18231;BME280;9240;49.966;21.994;2024-02-21T02:30:11;99438.41;;;5.16;92.36
18231;BME280;9240;49.966;21.994;2024-02-21T02:32:36;99437.66;;;5.14;92.32
18231;BME280;9240;49.966;21.994;2024-02-21T02:35:02;99436.91;;;5.12;92.07
18231;BME280;9240;49.966;21.994;2024-02-21T02:37:28;99441.31;;;5.10;91.89
18231;BME280;9240;49.966;21.994;2024-02-21T02:39:53;99437.88;;;5.09;92.13
18231;BME280;9240;49.966;21.994;2024-02-21T02:42:20;99440.53;;;5.08;91.93
18231;BME280;9240;49.966;21.994;2024-02-21T02:44:46;99433.69;;;5.07;91.69
18231;BME280;9240;49.966;21.994;2024-02-21T02:47:11;99443.16;;;5.06;91.66
18231;BME280;9240;49.966;21.994;2024-02-21T02:49:37;99442.41;;;5.04;91.74
18231;BME280;9240;49.966;21.994;2024-02-21T02:52:03;99437.25;;;5.04;91.55
18231;BME280;9240;49.966;21.994;2024-02-21T02:54:29;99445.06;;;5.03;91.59
18231;BME280;9240;49.966;21.994;2024-02-21T02:56:54;99441.66;;;5.02;91.52
18231;BME280;9240;49.966;21.994;2024-02-21T02:59:21;99434.75;;;5.03;91.48
18231;BME280;9240;49.966;21.994;2024-02-21T03:01:47;99444.16;;;5.04;91.54
18231;BME280;9240;49.966;21.994;2024-02-21T03:04:12;99443.34;;;5.03;91.73
18231;BME280;9240;49.966;21.994;2024-02-21T03:06:38;99439.00;;;5.04;91.39
18231;BME280;9240;49.966;21.994;2024-02-21T03:09:03;99441.59;;;5.04;91.57
18231;BME280;9240;49.966;21.994;2024-02-21T03:11:29;99438.19;;;5.03;91.35
18231;BME280;9240;49.966;21.994;2024-02-21T03:13:55;99437.31;;;5.03;91.35
18231;BME280;9240;49.966;21.994;2024-02-21T03:16:22;99440.00;;;5.01;91.23
18231;BME280;9240;49.966;21.994;2024-02-21T03:18:47;99443.63;;;4.97;91.30
18231;BME280;9240;49.966;21.994;2024-02-21T03:21:13;99445.50;;;4.93;91.42
18231;BME280;9240;49.966;21.994;2024-02-21T03:23:38;99440.41;;;4.92;91.37
18231;BME280;9240;49.966;21.994;2024-02-21T03:26:04;99445.69;;;4.89;91.09
18231;BME280;9240;49.966;21.994;2024-02-21T03:28:29;99445.09;;;4.83;91.08
18231;BME280;9240;49.966;21.994;2024-02-21T03:30:55;99446.13;;;4.79;91.02
18231;BME280;9240;49.966;21.994;2024-02-21T03:33:22;99447.25;;;4.74;90.87
18231;BME280;9240;49.966;21.994;2024-02-21T03:35:47;99447.53;;;4.67;91.00
18231;BME280;9240;49.966;21.994;2024-02-21T03:38:13;99445.22;;;4.61;90.75
18231;BME280;9240;49.966;21.994;2024-02-21T03:40:38;99443.97;;;4.51;90.28
18231;BME280;9240;49.966;21.994;2024-02-21T03:43:04;99446.25;;;4.38;90.68
18231;BME280;9240;49.966;21.994;2024-02-21T03:45:29;99448.53;;;4.25;90.72
18231;BME280;9240;49.966;21.994;2024-02-21T03:47:55;99449.94;;;4.12;90.55
18231;BME280;9240;49.966;21.994;2024-02-21T03:50:22;99449.59;;;4.00;90.46
18231;BME280;9240;49.966;21.994;2024-02-21T03:52:47;99453.50;;;3.88;90.54
18231;BME280;9240;49.966;21.994;2024-02-21T03:55:13;99450.63;;;3.75;90.65
18231;BME280;9240;49.966;21.994;2024-02-21T03:57:39;99456.22;;;3.64;91.13
18231;BME280;9240;49.966;21.994;2024-02-21T04:00:05;99454.19;;;3.51;90.81
18231;BME280;9240;49.966;21.994;2024-02-21T04:02:31;99456.38;;;3.39;91.45
18231;BME280;9240;49.966;21.994;2024-02-21T04:04:57;99458.50;;;3.28;91.55
18231;BME280;9240;49.966;21.994;2024-02-21T04:07:24;99458.94;;;3.17;91.38
18231;BME280;9240;49.966;21.994;2024-02-21T04:09:49;99453.34;;;3.07;91.56
18231;BME280;9240;49.966;21.994;2024-02-21T04:12:15;99449.41;;;2.97;91.77
18231;BME280;9240;49.966;21.994;2024-02-21T04:14:41;99451.47;;;2.88;91.52
18231;BME280;9240;49.966;21.994;2024-02-21T04:17:06;99452.56;;;2.81;91.94
18231;BME280;9240;49.966;21.994;2024-02-21T04:19:32;99453.81;;;2.71;91.88
18231;BME280;9240;49.966;21.994;2024-02-21T04:21:57;99453.25;;;2.63;92.09
18231;BME280;9240;49.966;21.994;2024-02-21T04:24:25;99454.38;;;2.55;92.12
18231;BME280;9240;49.966;21.994;2024-02-21T04:26:50;99453.75;;;2.49;92.13
18231;BME280;9240;49.966;21.994;2024-02-21T04:29:16;99448.88;;;2.41;92.13
18231;BME280;9240;49.966;21.994;2024-02-21T04:31:41;99456.84;;;2.35;92.36
18231;BME280;9240;49.966;21.994;2024-02-21T04:34:07;99447.66;;;2.27;92.40
18231;BME280;9240;49.966;21.994;2024-02-21T04:36:32;99454.81;;;2.19;92.41
18231;BME280;9240;49.966;21.994;2024-02-21T04:38:58;99449.94;;;2.11;92.52
18231;BME280;9240;49.966;21.994;2024-02-21T04:41:25;99448.47;;;2.04;92.55
18231;BME280;9240;49.966;21.994;2024-02-21T04:43:51;99448.66;;;1.98;92.63
18231;BME280;9240;49.966;21.994;2024-02-21T04:46:16;99444.66;;;1.91;93.00
18231;BME280;9240;49.966;21.994;2024-02-21T04:48:42;99445.69;;;1.85;93.04
18231;BME280;9240;49.966;21.994;2024-02-21T04:51:08;99444.16;;;1.79;92.98
18231;BME280;9240;49.966;21.994;2024-02-21T04:53:33;99440.06;;;1.74;93.12
18231;BME280;9240;49.966;21.994;2024-02-21T04:55:59;99439.44;;;1.67;93.46
18231;BME280;9240;49.966;21.994;2024-02-21T04:58:26;99442.97;;;1.63;93.47
18231;BME280;9240;49.966;21.994;2024-02-21T05:00:52;99449.06;;;1.60;93.85
18231;BME280;9240;49.966;21.994;2024-02-21T05:03:17;99441.41;;;1.59;93.87
18231;BME280;9240;49.966;21.994;2024-02-21T05:05:43;99446.50;;;1.60;93.99
18231;BME280;9240;49.966;21.994;2024-02-21T05:08:09;99444.81;;;1.59;94.03
18231;BME280;9240;49.966;21.994;2024-02-21T05:10:35;99439.78;;;1.56;94.20
18231;BME280;9240;49.966;21.994;2024-02-21T05:13:00;99452.69;;;1.55;94.42
18231;BME280;9240;49.966;21.994;2024-02-21T05:15:27;99455.25;;;1.55;94.56
18231;BME280;9240;49.966;21.994;2024-02-21T05:17:53;99448.38;;;1.55;94.60
18231;BME280;9240;49.966;21.994;2024-02-21T05:20:19;99445.03;;;1.53;95.00
18231;BME280;9240;49.966;21.994;2024-02-21T05:22:44;99450.03;;;1.56;94.89
18231;BME280;9240;49.966;21.994;2024-02-21T05:25:10;99446.56;;;1.59;94.99
18231;BME280;9240;49.966;21.994;2024-02-21T05:27:36;99443.03;;;1.61;95.09
18231;BME280;9240;49.966;21.994;2024-02-21T05:30:02;99440.41;;;1.63;94.95
18231;BME280;9240;49.966;21.994;2024-02-21T05:32:31;99444.72;;;1.62;94.86
18231;BME280;9240;49.966;21.994;2024-02-21T05:34:56;99448.25;;;1.60;94.63
18231;BME280;9240;49.966;21.994;2024-02-21T05:37:22;99447.53;;;1.55;94.54
18231;BME280;9240;49.966;21.994;2024-02-21T05:39:48;99449.38;;;1.51;94.84
18231;BME280;9240;49.966;21.994;2024-02-21T05:42:13;99452.81;;;1.50;94.65
18231;BME280;9240;49.966;21.994;2024-02-21T05:44:39;99458.00;;;1.48;94.88
18231;BME280;9240;49.966;21.994;2024-02-21T05:47:04;99448.63;;;1.47;94.88
18231;BME280;9240;49.966;21.994;2024-02-21T05:49:31;99445.16;;;1.48;95.12
18231;BME280;9240;49.966;21.994;2024-02-21T05:51:57;99445.94;;;1.50;95.08
18231;BME280;9240;49.966;21.994;2024-02-21T05:54:22;99446.00;;;1.49;94.95
18231;BME280;9240;49.966;21.994;2024-02-21T05:56:48;99449.41;;;1.49;94.98
18231;BME280;9240;49.966;21.994;2024-02-21T05:59:14;99443.47;;;1.47;94.84
18231;BME280;9240;49.966;21.994;2024-02-21T06:01:39;99450.28;;;1.48;94.91
18231;BME280;9240;49.966;21.994;2024-02-21T06:04:05;99443.44;;;1.49;95.13
18231;BME280;9240;49.966;21.994;2024-02-21T06:06:32;99449.38;;;1.51;95.17
18231;BME280;9240;49.966;21.994;2024-02-21T06:08:57;99447.34;;;1.61;95.38
18231;BME280;9240;49.966;21.994;2024-02-21T06:11:23;99448.63;;;1.74;95.50
18231;BME280;9240;49.966;21.994;2024-02-21T06:13:49;99451.47;;;1.92;95.41
18231;BME280;9240;49.966;21.994;2024-02-21T06:16:14;99452.53;;;2.10;95.26
18231;BME280;9240;49.966;21.994;2024-02-21T06:18:40;99447.66;;;2.27;95.01
18231;BME280;9240;49.966;21.994;2024-02-21T06:21:05;99440.19;;;2.45;95.04
18231;BME280;9240;49.966;21.994;2024-02-21T06:23:32;99438.72;;;2.62;94.91
18231;BME280;9240;49.966;21.994;2024-02-21T06:25:58;99440.06;;;2.72;94.69
18231;BME280;9240;49.966;21.994;2024-02-21T06:28:24;99434.75;;;2.77;94.55
18231;BME280;9240;49.966;21.994;2024-02-21T06:30:49;99447.53;;;2.78;94.48
18231;BME280;9240;49.966;21.994;2024-02-21T06:33:15;99448.44;;;2.77;94.60
18231;BME280;9240;49.966;21.994;2024-02-21T06:35:40;99449.47;;;2.73;94.29
18231;BME280;9240;49.966;21.994;2024-02-21T06:38:06;99453.81;;;2.71;94.43
18231;BME280;9240;49.966;21.994;2024-02-21T06:40:33;99457.28;;;2.70;94.43
18231;BME280;9240;49.966;21.994;2024-02-21T06:42:59;99458.00;;;2.73;94.25
18231;BME280;9240;49.966;21.994;2024-02-21T06:45:24;99462.50;;;2.91;94.16
18231;BME280;9240;49.966;21.994;2024-02-21T06:47:50;99456.72;;;3.08;94.01
18231;BME280;9240;49.966;21.994;2024-02-21T06:50:15;99451.22;;;3.17;94.00
18231;BME280;9240;49.966;21.994;2024-02-21T06:52:41;99456.84;;;3.27;93.69
18231;BME280;9240;49.966;21.994;2024-02-21T06:55:07;99453.97;;;3.34;93.31
18231;BME280;9240;49.966;21.994;2024-02-21T06:57:34;99454.63;;;3.40;93.11
18231;BME280;9240;49.966;21.994;2024-02-21T07:00:00;99444.22;;;3.43;93.15
18231;BME280;9240;49.966;21.994;2024-02-21T07:02:26;99446.72;;;3.44;92.93
18231;BME280;9240;49.966;21.994;2024-02-21T07:04:53;99456.22;;;3.42;93.05
18231;BME280;9240;49.966;21.994;2024-02-21T07:07:19;99448.47;;;3.44;92.80
18231;BME280;9240;49.966;21.994;2024-02-21T07:09:45;99453.53;;;3.45;92.69
18231;BME280;9240;49.966;21.994;2024-02-21T07:12:11;99445.66;;;3.50;92.69
18231;BME280;9240;49.966;21.994;2024-02-21T07:14:38;99450.66;;;3.53;92.60
18231;BME280;9240;49.966;21.994;2024-02-21T07:17:03;99444.47;;;3.57;92.44
18231;BME280;9240;49.966;21.994;2024-02-21T07:19:29;99444.25;;;3.63;92.43
18231;BME280;9240;49.966;21.994;2024-02-21T07:21:55;99443.97;;;3.70;92.47
18231;BME280;9240;49.966;21.994;2024-02-21T07:24:20;99444.53;;;3.76;92.18
18231;BME280;9240;49.966;21.994;2024-02-21T07:26:46;99440.00;;;3.83;92.16
18231;BME280;9240;49.966;21.994;2024-02-21T07:29:12;99438.81;;;3.90;91.86
18231;BME280;9240;49.966;21.994;2024-02-21T07:31:43;99436.78;;;3.99;91.84
18231;BME280;9240;49.966;21.994;2024-02-21T07:34:09;99439.84;;;4.07;91.77
18231;BME280;9240;49.966;21.994;2024-02-21T07:36:35;99433.53;;;4.14;91.41
18231;BME280;9240;49.966;21.994;2024-02-21T07:39:01;99434.88;;;4.23;91.66
18231;BME280;9240;49.966;21.994;2024-02-21T07:41:26;99432.66;;;4.34;91.20
18231;BME280;9240;49.966;21.994;2024-02-21T07:43:52;99427.81;;;4.47;91.36
18231;BME280;9240;49.966;21.994;2024-02-21T07:46:18;99427.03;;;4.64;91.08
18231;BME280;9240;49.966;21.994;2024-02-21T07:48:45;99424.50;;;4.82;90.49
18231;BME280;9240;49.966;21.994;2024-02-21T07:51:11;99421.16;;;4.99;90.24
18231;BME280;9240;49.966;21.994;2024-02-21T07:53:38;99424.00;;;5.12;89.66
18231;BME280;9240;49.966;21.994;2024-02-21T07:56:05;99422.09;;;5.15;89.54
18231;BME280;9240;49.966;21.994;2024-02-21T07:58:31;99414.13;;;5.20;89.85
18231;BME280;9240;49.966;21.994;2024-02-21T08:00:58;99412.41;;;5.21;89.45
18231;BME280;9240;49.966;21.994;2024-02-21T08:03:23;99414.66;;;5.27;89.18
18231;BME280;9240;49.966;21.994;2024-02-21T08:05:50;99415.34;;;5.30;89.19
18231;BME280;9240;49.966;21.994;2024-02-21T08:08:16;99423.72;;;5.36;89.15
18231;BME280;9240;49.966;21.994;2024-02-21T08:10:42;99421.81;;;5.39;88.75
18231;BME280;9240;49.966;21.994;2024-02-21T08:13:07;99424.19;;;5.44;88.61
18231;BME280;9240;49.966;21.994;2024-02-21T08:15:33;99429.13;;;5.49;88.57
18231;BME280;9240;49.966;21.994;2024-02-21T08:17:58;99424.34;;;5.58;88.24
18231;BME280;9240;49.966;21.994;2024-02-21T08:20:24;99427.47;;;5.65;88.32
18231;BME280;9240;49.966;21.994;2024-02-21T08:22:51;99428.75;;;5.74;88.12
18231;BME280;9240;49.966;21.994;2024-02-21T08:25:16;99422.34;;;5.81;87.94
18231;BME280;9240;49.966;21.994;2024-02-21T08:27:42;99428.81;;;5.90;87.64
18231;BME280;9240;49.966;21.994;2024-02-21T08:30:10;99427.31;;;6.03;87.49
18231;BME280;9240;49.966;21.994;2024-02-21T08:32:36;99422.94;;;6.21;87.10
18231;BME280;9240;49.966;21.994;2024-02-21T08:35:02;99421.72;;;6.45;87.21
18231;BME280;9240;49.966;21.994;2024-02-21T08:37:27;99421.84;;;6.75;86.36
18231;BME280;9240;49.966;21.994;2024-02-21T08:39:54;99420.31;;;7.03;85.37
18231;BME280;9240;49.966;21.994;2024-02-21T08:42:20;99418.78;;;7.31;84.39
18231;BME280;9240;49.966;21.994;2024-02-21T08:44:45;99415.78;;;7.53;83.60
18231;BME280;9240;49.966;21.994;2024-02-21T08:47:11;99411.41;;;7.70;82.64
18231;BME280;9240;49.966;21.994;2024-02-21T08:49:37;99412.25;;;7.85;82.38
18231;BME280;9240;49.966;21.994;2024-02-21T08:52:03;99411.59;;;7.96;81.09
18231;BME280;9240;49.966;21.994;2024-02-21T08:54:28;99411.59;;;7.96;81.15
18231;BME280;9240;49.966;21.994;2024-02-21T08:56:55;99406.63;;;7.93;80.70
18231;BME280;9240;49.966;21.994;2024-02-21T08:59:21;99400.50;;;7.94;80.52
18231;BME280;9240;49.966;21.994;2024-02-21T09:01:47;99410.88;;;7.94;80.12
18231;BME280;9240;49.966;21.994;2024-02-21T09:04:12;99400.88;;;7.87;79.74
18231;BME280;9240;49.966;21.994;2024-02-21T09:06:38;99399.38;;;7.83;79.89
18231;BME280;9240;49.966;21.994;2024-02-21T09:09:03;99405.47;;;7.82;79.64
18231;BME280;9240;49.966;21.994;2024-02-21T09:11:29;99404.72;;;7.80;79.19
18231;BME280;9240;49.966;21.994;2024-02-21T09:13:57;99405.66;;;7.79;79.33
18231;BME280;9240;49.966;21.994;2024-02-21T09:16:22;99404.91;;;7.77;78.62
18231;BME280;9240;49.966;21.994;2024-02-21T09:18:48;99400.19;;;7.69;78.71
18231;BME280;9240;49.966;21.994;2024-02-21T09:21:13;99397.41;;;7.72;78.47
18231;BME280;9240;49.966;21.994;2024-02-21T09:23:39;99392.22;;;7.72;78.55
18231;BME280;9240;49.966;21.994;2024-02-21T09:26:04;99396.88;;;7.67;77.90
18231;BME280;9240;49.966;21.994;2024-02-21T09:28:30;99394.53;;;7.63;78.17
18231;BME280;9240;49.966;21.994;2024-02-21T09:30:57;99386.94;;;7.59;77.86
18231;BME280;9240;49.966;21.994;2024-02-21T09:33:22;99388.78;;;7.57;78.16
18231;BME280;9240;49.966;21.994;2024-02-21T09:35:48;99392.13;;;7.59;77.62
18231;BME280;9240;49.966;21.994;2024-02-21T09:38:14;99389.25;;;7.64;77.46
18231;BME280;9240;49.966;21.994;2024-02-21T09:40:39;99387.66;;;7.62;77.38
18231;BME280;9240;49.966;21.994;2024-02-21T09:43:05;99392.13;;;7.59;77.00
18231;BME280;9240;49.966;21.994;2024-02-21T09:45:30;99383.69;;;7.56;76.71
18231;BME280;9240;49.966;21.994;2024-02-21T09:48:08;99392.47;;;7.53;76.88
18231;BME280;9240;49.966;21.994;2024-02-21T09:50:40;99393.97;;;7.57;76.70
18231;BME280;9240;49.966;21.994;2024-02-21T09:53:06;99386.84;;;7.61;76.73
18231;BME280;9240;49.966;21.994;2024-02-21T09:55:33;99389.63;;;7.72;76.23
18231;BME280;9240;49.966;21.994;2024-02-21T09:57:59;99384.28;;;7.90;76.13
18231;BME280;9240;49.966;21.994;2024-02-21T10:00:26;99373.66;;;8.09;75.81
18231;BME280;9240;49.966;21.994;2024-02-21T10:02:51;99375.22;;;8.26;75.62
18231;BME280;9240;49.966;21.994;2024-02-21T10:05:18;99379.00;;;8.49;75.41
18231;BME280;9240;49.966;21.994;2024-02-21T10:07:44;99376.00;;;8.70;75.13
18231;BME280;9240;49.966;21.994;2024-02-21T10:10:10;99373.56;;;8.81;74.63
18231;BME280;9240;49.966;21.994;2024-02-21T10:12:36;99372.25;;;8.89;74.32
18231;BME280;9240;49.966;21.994;2024-02-21T10:15:02;99373.97;;;9.03;73.64
18231;BME280;9240;49.966;21.994;2024-02-21T10:17:27;99367.97;;;9.15;73.23
18231;BME280;9240;49.966;21.994;2024-02-21T10:19:53;99364.91;;;9.36;72.75
18231;BME280;9240;49.966;21.994;2024-02-21T10:22:20;99355.97;;;9.53;72.03
18231;BME280;9240;49.966;21.994;2024-02-21T10:24:46;99354.94;;;9.68;71.52
18231;BME280;9240;49.966;21.994;2024-02-21T10:27:11;99356.28;;;9.87;70.90
18231;BME280;9240;49.966;21.994;2024-02-21T10:29:37;99354.09;;;9.94;70.28
18231;BME280;9240;49.966;21.994;2024-02-21T10:32:07;99345.16;;;9.98;69.73
18231;BME280;9240;49.966;21.994;2024-02-21T10:34:33;99352.63;;;10.02;69.48
18231;BME280;9240;49.966;21.994;2024-02-21T10:37:02;99348.78;;;10.08;68.96
18231;BME280;9240;49.966;21.994;2024-02-21T10:39:29;99342.19;;;10.28;68.45
18231;BME280;9240;49.966;21.994;2024-02-21T10:41:59;99337.47;;;10.46;67.84
18231;BME280;9240;49.966;21.994;2024-02-21T10:44:26;99339.63;;;10.66;67.18
18231;BME280;9240;49.966;21.994;2024-02-21T10:46:54;99339.06;;;10.73;66.74
18231;BME280;9240;49.966;21.994;2024-02-21T10:49:23;99336.47;;;10.73;66.11
18231;BME280;9240;49.966;21.994;2024-02-21T10:51:49;99330.31;;;10.74;65.90
18231;BME280;9240;49.966;21.994;2024-02-21T10:54:40;99325.03;;;10.87;65.33
18231;BME280;9240;49.966;21.994;2024-02-21T10:57:10;99324.97;;;11.00;65.08
18231;BME280;9240;49.966;21.994;2024-02-21T10:59:39;99316.22;;;11.01;64.58
18231;BME280;9240;49.966;21.994;2024-02-21T11:02:05;99317.03;;;11.02;64.21
18231;BME280;9240;49.966;21.994;2024-02-21T11:04:31;99309.03;;;11.16;63.59
18231;BME280;9240;49.966;21.994;2024-02-21T11:06:58;99295.91;;;11.29;63.29
18231;BME280;9240;49.966;21.994;2024-02-21T11:09:30;99299.00;;;11.34;62.66
18231;BME280;9240;49.966;21.994;2024-02-21T11:11:55;99300.66;;;11.35;62.30
18231;BME280;9240;49.966;21.994;2024-02-21T11:14:26;99288.69;;;11.33;61.92
18231;BME280;9240;49.966;21.994;2024-02-21T11:16:52;99289.88;;;11.29;61.81
18231;BME280;9240;49.966;21.994;2024-02-21T11:19:21;99288.75;;;11.08;61.60
18231;BME280;9240;49.966;21.994;2024-02-21T11:21:47;99277.16;;;10.77;61.52
18231;BME280;9240;49.966;21.994;2024-02-21T11:24:13;99278.16;;;10.63;61.39
18231;BME280;9240;49.966;21.994;2024-02-21T11:26:40;99279.44;;;10.57;61.29
18231;BME280;9240;49.966;21.994;2024-02-21T11:29:23;99271.75;;;10.56;61.23
18231;BME280;9240;49.966;21.994;2024-02-21T11:31:49;99276.50;;;10.62;61.28
18231;BME280;9240;49.966;21.994;2024-02-21T11:34:17;99267.19;;;10.71;61.22
18231;BME280;9240;49.966;21.994;2024-02-21T11:36:47;99264.00;;;10.78;61.14
18231;BME280;9240;49.966;21.994;2024-02-21T11:39:13;99262.84;;;10.83;60.93
18231;BME280;9240;49.966;21.994;2024-02-21T11:41:38;99262.63;;;10.86;60.79
18231;BME280;9240;49.966;21.994;2024-02-21T11:44:04;99255.03;;;10.83;60.62
18231;BME280;9240;49.966;21.994;2024-02-21T11:46:31;99249.94;;;10.81;60.51
18231;BME280;9240;49.966;21.994;2024-02-21T11:48:56;99257.25;;;10.76;60.81
18231;BME280;9240;49.966;21.994;2024-02-21T11:51:24;99259.72;;;10.66;60.80
18231;BME280;9240;49.966;21.994;2024-02-21T11:53:51;99256.44;;;10.51;60.71
18231;BME280;9240;49.966;21.994;2024-02-21T11:56:16;99257.84;;;10.44;60.68
18231;BME280;9240;49.966;21.994;2024-02-21T11:58:42;99254.38;;;10.43;60.73
18231;BME280;9240;49.966;21.994;2024-02-21T12:01:07;99248.97;;;10.46;60.70
18231;BME280;9240;49.966;21.994;2024-02-21T12:03:34;99249.59;;;10.50;60.46
18231;BME280;9240;49.966;21.994;2024-02-21T12:06:00;99248.31;;;10.56;60.34
18231;BME280;9240;49.966;21.994;2024-02-21T12:08:26;99247.75;;;10.63;60.26
18231;BME280;9240;49.966;21.994;2024-02-21T12:10:51;99252.03;;;10.65;60.18
18231;BME280;9240;49.966;21.994;2024-02-21T12:13:17;99238.88;;;10.66;60.16
18231;BME280;9240;49.966;21.994;2024-02-21T12:15:47;99240.41;;;10.69;59.83
18231;BME280;9240;49.966;21.994;2024-02-21T12:18:13;99232.28;;;10.73;59.71
18231;BME280;9240;49.966;21.994;2024-02-21T12:20:40;99228.00;;;10.72;59.39
18231;BME280;9240;49.966;21.994;2024-02-21T12:23:09;99229.56;;;10.75;59.02
18231;BME280;9240;49.966;21.994;2024-02-21T12:25:34;99217.31;;;10.64;59.05
18231;BME280;9240;49.966;21.994;2024-02-21T12:28:00;99223.47;;;10.63;59.00
18231;BME280;9240;49.966;21.994;2024-02-21T12:30:25;99224.91;;;10.67;58.89
18231;BME280;9240;49.966;21.994;2024-02-21T12:32:51;99222.59;;;10.75;59.12
18231;BME280;9240;49.966;21.994;2024-02-21T12:35:16;99219.28;;;10.85;59.33
18231;BME280;9240;49.966;21.994;2024-02-21T12:37:43;99214.34;;;10.93;59.20
18231;BME280;9240;49.966;21.994;2024-02-21T12:40:10;99210.19;;;11.02;58.93
18231;BME280;9240;49.966;21.994;2024-02-21T12:42:36;99203.00;;;11.17;58.61
18231;BME280;9240;49.966;21.994;2024-02-21T12:45:02;99208.22;;;11.28;58.33
18231;BME280;9240;49.966;21.994;2024-02-21T12:47:27;99206.94;;;11.34;58.32
18231;BME280;9240;49.966;21.994;2024-02-21T12:49:53;99198.28;;;11.33;57.88
18231;BME280;9240;49.966;21.994;2024-02-21T12:52:19;99201.81;;;11.32;57.59
18231;BME280;9240;49.966;21.994;2024-02-21T12:54:46;99201.94;;;11.31;57.73
18231;BME280;9240;49.966;21.994;2024-02-21T12:57:11;99195.78;;;11.32;57.78
18231;BME280;9240;49.966;21.994;2024-02-21T12:59:37;99196.84;;;11.29;57.76
18231;BME280;9240;49.966;21.994;2024-02-21T13:02:02;99188.44;;;11.26;57.63
18231;BME280;9240;49.966;21.994;2024-02-21T13:04:28;99189.88;;;11.18;57.34